sensor_id;sensor_type;location;lat;lon;timestamp;P1;durP1;ratioP1;P2;durP2;ratioP2
30850;SDS011;17567;48.382;9.102;2023-05-07T00:01:13;3.43;;;2.93;;
30850;SDS011;17567;48.382;9.102;2023-05-07T00:06:14;4.73;;;3.03;;
30850;SDS011;17567;48.382;9.102;2023-05-07T00:11:15;4.80;;;2.77;;
30850;SDS011;17567;48.382;9.102;2023-05-07T00:16:15;5.10;;;2.83;;
30850;SDS011;17567;48.382;9.102;2023-05-07T00:21:16;3.30;;;3.00;;
30850;SDS011;17567;48.382;9.102;2023-05-07T00:26:16;4.60;;;3.37;;
30850;SDS011;17567;48.382;9.102;2023-05-07T00:31:17;3.63;;;3.10;;
30850;SDS011;17567;48.382;9.102;2023-05-07T00:36:17;5.50;;;3.10;;
30850;SDS011;17567;48.382;9.102;2023-05-07T00:41:21;8.87;;;3.20;;
30850;SDS011;17567;48.382;9.102;2023-05-07T00:46:22;3.17;;;2.97;;
30850;SDS011;17567;48.382;9.102;2023-05-07T00:51:23;3.07;;;2.87;;
30850;SDS011;17567;48.382;9.102;2023-05-07T00:56:26;3.33;;;3.03;;
30850;SDS011;17567;48.382;9.102;2023-05-07T01:01:27;4.87;;;2.97;;
30850;SDS011;17567;48.382;9.102;2023-05-07T01:06:28;6.57;;;3.13;;
30850;SDS011;17567;48.382;9.102;2023-05-07T01:11:30;4.00;;;3.30;;
30850;SDS011;17567;48.382;9.102;2023-05-07T01:16:31;3.90;;;2.93;;
30850;SDS011;17567;48.382;9.102;2023-05-07T01:21:33;3.27;;;2.97;;
30850;SDS011;17567;48.382;9.102;2023-05-07T01:26:34;3.27;;;2.97;;
30850;SDS011;17567;48.382;9.102;2023-05-07T01:31:35;5.20;;;3.80;;
30850;SDS011;17567;48.382;9.102;2023-05-07T01:36:37;4.93;;;3.50;;
30850;SDS011;17567;48.382;9.102;2023-05-07T01:41:39;4.87;;;3.73;;
30850;SDS011;17567;48.382;9.102;2023-05-07T01:46:40;5.10;;;3.90;;
30850;SDS011;17567;48.382;9.102;2023-05-07T01:51:41;3.37;;;3.10;;
30850;SDS011;17567;48.382;9.102;2023-05-07T01:56:42;4.63;;;3.33;;
30850;SDS011;17567;48.382;9.102;2023-05-07T02:01:42;4.23;;;3.53;;
30850;SDS011;17567;48.382;9.102;2023-05-07T02:06:43;5.53;;;4.20;;
30850;SDS011;17567;48.382;9.102;2023-05-07T02:11:43;5.67;;;4.00;;
30850;SDS011;17567;48.382;9.102;2023-05-07T02:16:44;6.43;;;4.00;;
30850;SDS011;17567;48.382;9.102;2023-05-07T02:21:45;6.40;;;3.50;;
30850;SDS011;17567;48.382;9.102;2023-05-07T02:26:45;6.10;;;3.60;;
30850;SDS011;17567;48.382;9.102;2023-05-07T02:31:46;4.00;;;3.70;;
30850;SDS011;17567;48.382;9.102;2023-05-07T02:36:50;4.13;;;3.60;;
30850;SDS011;17567;48.382;9.102;2023-05-07T02:41:51;4.73;;;4.33;;
30850;SDS011;17567;48.382;9.102;2023-05-07T02:46:51;4.70;;;4.30;;
30850;SDS011;17567;48.382;9.102;2023-05-07T02:51:52;3.90;;;3.37;;
30850;SDS011;17567;48.382;9.102;2023-05-07T02:56:52;5.67;;;3.77;;
30850;SDS011;17567;48.382;9.102;2023-05-07T03:01:53;3.70;;;3.40;;
30850;SDS011;17567;48.382;9.102;2023-05-07T03:06:54;3.57;;;3.27;;
30850;SDS011;17567;48.382;9.102;2023-05-07T03:11:54;6.17;;;3.47;;
30850;SDS011;17567;48.382;9.102;2023-05-07T03:16:56;3.40;;;2.93;;
30850;SDS011;17567;48.382;9.102;2023-05-07T03:21:56;11.70;;;3.23;;
30850;SDS011;17567;48.382;9.102;2023-05-07T03:26:57;3.43;;;3.23;;
30850;SDS011;17567;48.382;9.102;2023-05-07T03:31:58;3.37;;;3.07;;
30850;SDS011;17567;48.382;9.102;2023-05-07T03:36:58;3.97;;;3.37;;
30850;SDS011;17567;48.382;9.102;2023-05-07T03:41:59;3.60;;;3.30;;
30850;SDS011;17567;48.382;9.102;2023-05-07T03:47:00;3.73;;;2.87;;
30850;SDS011;17567;48.382;9.102;2023-05-07T03:52:01;3.53;;;3.30;;
30850;SDS011;17567;48.382;9.102;2023-05-07T03:57:01;8.93;;;5.47;;
30850;SDS011;17567;48.382;9.102;2023-05-07T04:02:02;3.50;;;3.20;;
30850;SDS011;17567;48.382;9.102;2023-05-07T04:07:03;3.87;;;3.50;;
30850;SDS011;17567;48.382;9.102;2023-05-07T04:12:04;3.40;;;3.10;;
30850;SDS011;17567;48.382;9.102;2023-05-07T04:17:05;3.27;;;3.07;;
30850;SDS011;17567;48.382;9.102;2023-05-07T04:22:09;4.20;;;3.40;;
30850;SDS011;17567;48.382;9.102;2023-05-07T04:27:10;3.47;;;3.17;;
30850;SDS011;17567;48.382;9.102;2023-05-07T04:32:10;4.13;;;3.80;;
30850;SDS011;17567;48.382;9.102;2023-05-07T04:37:11;6.00;;;3.97;;
30850;SDS011;17567;48.382;9.102;2023-05-07T04:42:15;6.00;;;5.50;;
30850;SDS011;17567;48.382;9.102;2023-05-07T04:47:16;6.43;;;4.70;;
30850;SDS011;17567;48.382;9.102;2023-05-07T04:52:16;4.23;;;3.87;;
30850;SDS011;17567;48.382;9.102;2023-05-07T04:57:17;4.87;;;4.33;;
30850;SDS011;17567;48.382;9.102;2023-05-07T05:02:18;5.70;;;4.47;;
30850;SDS011;17567;48.382;9.102;2023-05-07T05:07:18;5.27;;;4.07;;
30850;SDS011;17567;48.382;9.102;2023-05-07T05:12:19;6.43;;;5.50;;
30850;SDS011;17567;48.382;9.102;2023-05-07T05:17:19;5.67;;;5.13;;
30850;SDS011;17567;48.382;9.102;2023-05-07T05:22:23;8.00;;;6.07;;
30850;SDS011;17567;48.382;9.102;2023-05-07T05:27:24;6.53;;;5.40;;
30850;SDS011;17567;48.382;9.102;2023-05-07T05:32:24;7.57;;;6.80;;
30850;SDS011;17567;48.382;9.102;2023-05-07T05:37:25;8.17;;;7.27;;
30850;SDS011;17567;48.382;9.102;2023-05-07T05:42:26;10.23;;;7.03;;
30850;SDS011;17567;48.382;9.102;2023-05-07T05:47:29;7.60;;;6.90;;
30850;SDS011;17567;48.382;9.102;2023-05-07T05:52:30;10.33;;;6.77;;
30850;SDS011;17567;48.382;9.102;2023-05-07T05:57:30;7.80;;;7.07;;
30850;SDS011;17567;48.382;9.102;2023-05-07T06:02:31;8.40;;;6.80;;
30850;SDS011;17567;48.382;9.102;2023-05-07T06:07:31;6.50;;;5.90;;
30850;SDS011;17567;48.382;9.102;2023-05-07T06:12:32;6.30;;;5.80;;
30850;SDS011;17567;48.382;9.102;2023-05-07T06:17:33;6.20;;;5.37;;
30850;SDS011;17567;48.382;9.102;2023-05-07T06:22:34;8.30;;;5.27;;
30850;SDS011;17567;48.382;9.102;2023-05-07T06:27:34;5.00;;;4.50;;
30850;SDS011;17567;48.382;9.102;2023-05-07T06:32:36;7.30;;;5.37;;
30850;SDS011;17567;48.382;9.102;2023-05-07T06:37:37;5.00;;;4.60;;
30850;SDS011;17567;48.382;9.102;2023-05-07T06:42:42;5.43;;;4.20;;
30850;SDS011;17567;48.382;9.102;2023-05-07T06:47:43;6.83;;;5.07;;
30850;SDS011;17567;48.382;9.102;2023-05-07T06:52:43;4.80;;;4.40;;
30850;SDS011;17567;48.382;9.102;2023-05-07T06:57:44;4.57;;;4.17;;
30850;SDS011;17567;48.382;9.102;2023-05-07T07:02:44;4.80;;;4.40;;
30850;SDS011;17567;48.382;9.102;2023-05-07T07:07:45;5.97;;;4.30;;
30850;SDS011;17567;48.382;9.102;2023-05-07T07:12:52;7.83;;;4.40;;
30850;SDS011;17567;48.382;9.102;2023-05-07T07:17:53;4.67;;;4.27;;
30850;SDS011;17567;48.382;9.102;2023-05-07T07:22:53;8.63;;;4.83;;
30850;SDS011;17567;48.382;9.102;2023-05-07T07:27:54;5.57;;;5.07;;
30850;SDS011;17567;48.382;9.102;2023-05-07T07:32:55;6.67;;;4.40;;
30850;SDS011;17567;48.382;9.102;2023-05-07T07:38:02;4.67;;;3.70;;
30850;SDS011;17567;48.382;9.102;2023-05-07T07:43:02;4.23;;;3.83;;
30850;SDS011;17567;48.382;9.102;2023-05-07T07:48:03;4.63;;;3.53;;
30850;SDS011;17567;48.382;9.102;2023-05-07T07:53:04;6.47;;;4.70;;
30850;SDS011;17567;48.382;9.102;2023-05-07T07:58:05;4.93;;;4.53;;
30850;SDS011;17567;48.382;9.102;2023-05-07T08:03:05;5.67;;;3.90;;
30850;SDS011;17567;48.382;9.102;2023-05-07T08:08:09;3.43;;;3.10;;
30850;SDS011;17567;48.382;9.102;2023-05-07T08:13:09;3.03;;;2.40;;
30850;SDS011;17567;48.382;9.102;2023-05-07T08:18:10;2.63;;;2.40;;
30850;SDS011;17567;48.382;9.102;2023-05-07T08:23:10;3.63;;;2.93;;
30850;SDS011;17567;48.382;9.102;2023-05-07T08:28:11;2.73;;;2.30;;
30850;SDS011;17567;48.382;9.102;2023-05-07T08:33:12;2.73;;;2.53;;
30850;SDS011;17567;48.382;9.102;2023-05-07T08:38:13;2.40;;;2.20;;
30850;SDS011;17567;48.382;9.102;2023-05-07T08:43:14;3.60;;;2.13;;
30850;SDS011;17567;48.382;9.102;2023-05-07T08:48:16;2.13;;;1.90;;
30850;SDS011;17567;48.382;9.102;2023-05-07T08:53:17;3.70;;;2.17;;
30850;SDS011;17567;48.382;9.102;2023-05-07T08:58:18;2.73;;;2.50;;
30850;SDS011;17567;48.382;9.102;2023-05-07T09:03:20;3.50;;;3.20;;
30850;SDS011;17567;48.382;9.102;2023-05-07T09:08:24;4.43;;;3.87;;
30850;SDS011;17567;48.382;9.102;2023-05-07T09:13:25;2.90;;;2.70;;
30850;SDS011;17567;48.382;9.102;2023-05-07T09:18:27;7.03;;;3.50;;
30850;SDS011;17567;48.382;9.102;2023-05-07T09:23:28;3.67;;;3.30;;
30850;SDS011;17567;48.382;9.102;2023-05-07T09:28:29;3.47;;;2.93;;
30850;SDS011;17567;48.382;9.102;2023-05-07T09:33:30;3.17;;;2.97;;
30850;SDS011;17567;48.382;9.102;2023-05-07T09:38:32;3.30;;;3.00;;
30850;SDS011;17567;48.382;9.102;2023-05-07T09:43:36;3.40;;;3.10;;
30850;SDS011;17567;48.382;9.102;2023-05-07T09:48:38;4.30;;;3.20;;
30850;SDS011;17567;48.382;9.102;2023-05-07T09:53:40;3.40;;;3.03;;
30850;SDS011;17567;48.382;9.102;2023-05-07T09:58:42;4.93;;;3.17;;
30850;SDS011;17567;48.382;9.102;2023-05-07T10:03:44;3.50;;;3.20;;
30850;SDS011;17567;48.382;9.102;2023-05-07T10:08:46;6.23;;;3.23;;
30850;SDS011;17567;48.382;9.102;2023-05-07T10:13:47;6.37;;;3.50;;
30850;SDS011;17567;48.382;9.102;2023-05-07T10:18:48;2.90;;;2.53;;
30850;SDS011;17567;48.382;9.102;2023-05-07T10:23:53;3.30;;;3.00;;
30850;SDS011;17567;48.382;9.102;2023-05-07T10:29:05;3.67;;;3.37;;
30850;SDS011;17567;48.382;9.102;2023-05-07T10:34:12;3.60;;;3.30;;
30850;SDS011;17567;48.382;9.102;2023-05-07T10:39:16;3.90;;;3.03;;
30850;SDS011;17567;48.382;9.102;2023-05-07T10:44:27;2.47;;;2.30;;
30850;SDS011;17567;48.382;9.102;2023-05-07T10:49:28;3.50;;;2.20;;
30850;SDS011;17567;48.382;9.102;2023-05-07T10:54:29;3.40;;;2.27;;
30850;SDS011;17567;48.382;9.102;2023-05-07T10:59:31;4.17;;;2.20;;
30850;SDS011;17567;48.382;9.102;2023-05-07T11:04:32;4.23;;;2.00;;
30850;SDS011;17567;48.382;9.102;2023-05-07T11:14:53;5.50;;;2.33;;
30850;SDS011;17567;48.382;9.102;2023-05-07T11:19:55;6.27;;;2.40;;
30850;SDS011;17567;48.382;9.102;2023-05-07T11:24:58;3.03;;;2.37;;
30850;SDS011;17567;48.382;9.102;2023-05-07T11:29:59;6.20;;;3.07;;
30850;SDS011;17567;48.382;9.102;2023-05-07T11:35:01;5.20;;;2.40;;
30850;SDS011;17567;48.382;9.102;2023-05-07T11:40:08;10.77;;;2.93;;
30850;SDS011;17567;48.382;9.102;2023-05-07T11:45:10;2.80;;;2.60;;
30850;SDS011;17567;48.382;9.102;2023-05-07T11:50:11;4.20;;;3.10;;
30850;SDS011;17567;48.382;9.102;2023-05-07T11:55:11;2.77;;;2.27;;
30850;SDS011;17567;48.382;9.102;2023-05-07T12:00:15;5.30;;;2.60;;
30850;SDS011;17567;48.382;9.102;2023-05-07T12:05:16;2.60;;;2.40;;
30850;SDS011;17567;48.382;9.102;2023-05-07T12:10:17;3.83;;;2.90;;
30850;SDS011;17567;48.382;9.102;2023-05-07T12:15:22;6.40;;;3.07;;
30850;SDS011;17567;48.382;9.102;2023-05-07T12:20:24;2.87;;;2.67;;
30850;SDS011;17567;48.382;9.102;2023-05-07T12:25:24;5.30;;;2.90;;
30850;SDS011;17567;48.382;9.102;2023-05-07T12:30:25;4.20;;;2.83;;
30850;SDS011;17567;48.382;9.102;2023-05-07T12:35:36;4.50;;;3.00;;
30850;SDS011;17567;48.382;9.102;2023-05-07T12:45:40;3.43;;;2.40;;
30850;SDS011;17567;48.382;9.102;2023-05-07T12:50:42;3.17;;;2.87;;
30850;SDS011;17567;48.382;9.102;2023-05-07T12:55:44;3.00;;;2.80;;
30850;SDS011;17567;48.382;9.102;2023-05-07T13:00:49;3.87;;;3.03;;
30850;SDS011;17567;48.382;9.102;2023-05-07T13:05:51;3.77;;;3.10;;
30850;SDS011;17567;48.382;9.102;2023-05-07T13:10:52;3.03;;;2.50;;
30850;SDS011;17567;48.382;9.102;2023-05-07T13:15:56;6.77;;;2.20;;
30850;SDS011;17567;48.382;9.102;2023-05-07T13:20:56;3.30;;;2.70;;
30850;SDS011;17567;48.382;9.102;2023-05-07T13:25:57;6.43;;;2.47;;
30850;SDS011;17567;48.382;9.102;2023-05-07T13:30:58;3.30;;;2.70;;
30850;SDS011;17567;48.382;9.102;2023-05-07T13:35:59;13.13;;;2.73;;
30850;SDS011;17567;48.382;9.102;2023-05-07T13:41:01;6.50;;;2.33;;
30850;SDS011;17567;48.382;9.102;2023-05-07T13:46:01;8.20;;;3.70;;
30850;SDS011;17567;48.382;9.102;2023-05-07T13:51:02;6.03;;;3.10;;
30850;SDS011;17567;48.382;9.102;2023-05-07T13:56:03;6.30;;;2.70;;
30850;SDS011;17567;48.382;9.102;2023-05-07T14:01:04;6.40;;;3.07;;
30850;SDS011;17567;48.382;9.102;2023-05-07T14:06:05;4.17;;;2.83;;
30850;SDS011;17567;48.382;9.102;2023-05-07T14:11:06;4.83;;;2.87;;
30850;SDS011;17567;48.382;9.102;2023-05-07T14:16:07;9.63;;;3.10;;
30850;SDS011;17567;48.382;9.102;2023-05-07T14:21:08;7.27;;;2.37;;
30850;SDS011;17567;48.382;9.102;2023-05-07T14:26:09;7.93;;;3.13;;
30850;SDS011;17567;48.382;9.102;2023-05-07T14:31:10;4.20;;;2.53;;
30850;SDS011;17567;48.382;9.102;2023-05-07T14:36:12;4.23;;;2.13;;
30850;SDS011;17567;48.382;9.102;2023-05-07T14:41:12;2.93;;;2.30;;
30850;SDS011;17567;48.382;9.102;2023-05-07T14:46:14;2.40;;;2.20;;
30850;SDS011;17567;48.382;9.102;2023-05-07T14:51:15;3.57;;;2.70;;
30850;SDS011;17567;48.382;9.102;2023-05-07T14:56:16;2.30;;;2.10;;
30850;SDS011;17567;48.382;9.102;2023-05-07T15:01:17;1.87;;;1.77;;
30850;SDS011;17567;48.382;9.102;2023-05-07T15:06:17;4.43;;;2.50;;
30850;SDS011;17567;48.382;9.102;2023-05-07T15:11:18;3.80;;;2.10;;
30850;SDS011;17567;48.382;9.102;2023-05-07T15:16:19;4.93;;;2.67;;
30850;SDS011;17567;48.382;9.102;2023-05-07T15:21:20;22.13;;;9.27;;
30850;SDS011;17567;48.382;9.102;2023-05-07T15:26:21;11.60;;;6.83;;
30850;SDS011;17567;48.382;9.102;2023-05-07T15:31:22;3.30;;;3.00;;
30850;SDS011;17567;48.382;9.102;2023-05-07T15:36:23;7.20;;;4.20;;
30850;SDS011;17567;48.382;9.102;2023-05-07T15:41:25;4.23;;;3.80;;
30850;SDS011;17567;48.382;9.102;2023-05-07T15:46:26;7.00;;;5.17;;
30850;SDS011;17567;48.382;9.102;2023-05-07T15:51:26;7.50;;;5.80;;
30850;SDS011;17567;48.382;9.102;2023-05-07T15:56:29;5.23;;;3.40;;
30850;SDS011;17567;48.382;9.102;2023-05-07T16:01:32;4.23;;;3.00;;
30850;SDS011;17567;48.382;9.102;2023-05-07T16:06:33;4.77;;;4.20;;
30850;SDS011;17567;48.382;9.102;2023-05-07T16:11:34;5.87;;;3.50;;
30850;SDS011;17567;48.382;9.102;2023-05-07T16:16:35;6.10;;;3.93;;
30850;SDS011;17567;48.382;9.102;2023-05-07T16:21:37;4.27;;;3.30;;
30850;SDS011;17567;48.382;9.102;2023-05-07T16:26:37;4.30;;;3.90;;
30850;SDS011;17567;48.382;9.102;2023-05-07T16:31:38;4.63;;;4.20;;
30850;SDS011;17567;48.382;9.102;2023-05-07T16:36:39;3.27;;;2.90;;
30850;SDS011;17567;48.382;9.102;2023-05-07T16:41:40;3.37;;;3.07;;
30850;SDS011;17567;48.382;9.102;2023-05-07T16:46:41;3.00;;;2.67;;
30850;SDS011;17567;48.382;9.102;2023-05-07T16:51:42;3.67;;;3.30;;
30850;SDS011;17567;48.382;9.102;2023-05-07T16:56:43;3.63;;;3.33;;
30850;SDS011;17567;48.382;9.102;2023-05-07T17:01:44;3.43;;;3.13;;
30850;SDS011;17567;48.382;9.102;2023-05-07T17:06:45;5.53;;;4.10;;
30850;SDS011;17567;48.382;9.102;2023-05-07T17:11:45;4.57;;;4.17;;
30850;SDS011;17567;48.382;9.102;2023-05-07T17:16:46;3.73;;;3.43;;
30850;SDS011;17567;48.382;9.102;2023-05-07T17:21:47;4.07;;;3.70;;
30850;SDS011;17567;48.382;9.102;2023-05-07T17:26:48;5.53;;;3.37;;
30850;SDS011;17567;48.382;9.102;2023-05-07T17:31:49;6.93;;;3.57;;
30850;SDS011;17567;48.382;9.102;2023-05-07T17:36:49;6.47;;;4.40;;
30850;SDS011;17567;48.382;9.102;2023-05-07T17:41:50;16.20;;;7.83;;
30850;SDS011;17567;48.382;9.102;2023-05-07T17:46:51;4.40;;;3.87;;
30850;SDS011;17567;48.382;9.102;2023-05-07T17:51:52;9.77;;;6.47;;
30850;SDS011;17567;48.382;9.102;2023-05-07T17:56:52;3.50;;;3.20;;
30850;SDS011;17567;48.382;9.102;2023-05-07T18:01:53;3.20;;;2.50;;
30850;SDS011;17567;48.382;9.102;2023-05-07T18:06:54;3.30;;;3.00;;
30850;SDS011;17567;48.382;9.102;2023-05-07T18:11:56;4.67;;;4.17;;
30850;SDS011;17567;48.382;9.102;2023-05-07T18:16:57;4.87;;;4.17;;
30850;SDS011;17567;48.382;9.102;2023-05-07T18:21:57;3.70;;;3.40;;
30850;SDS011;17567;48.382;9.102;2023-05-07T18:26:58;4.10;;;3.80;;
30850;SDS011;17567;48.382;9.102;2023-05-07T18:31:59;6.30;;;5.70;;
30850;SDS011;17567;48.382;9.102;2023-05-07T18:37:00;4.00;;;3.60;;
30850;SDS011;17567;48.382;9.102;2023-05-07T18:42:01;4.47;;;3.17;;
30850;SDS011;17567;48.382;9.102;2023-05-07T18:47:04;4.13;;;2.60;;
30850;SDS011;17567;48.382;9.102;2023-05-07T18:52:05;5.40;;;5.00;;
30850;SDS011;17567;48.382;9.102;2023-05-07T18:57:06;5.07;;;4.67;;
30850;SDS011;17567;48.382;9.102;2023-05-07T19:02:06;7.43;;;3.20;;
30850;SDS011;17567;48.382;9.102;2023-05-07T19:07:07;2.93;;;2.73;;
30850;SDS011;17567;48.382;9.102;2023-05-07T19:12:08;3.07;;;2.87;;
30850;SDS011;17567;48.382;9.102;2023-05-07T19:17:08;2.60;;;2.40;;
30850;SDS011;17567;48.382;9.102;2023-05-07T19:22:09;2.73;;;2.17;;
30850;SDS011;17567;48.382;9.102;2023-05-07T19:27:10;3.60;;;2.50;;
30850;SDS011;17567;48.382;9.102;2023-05-07T19:32:14;2.53;;;2.33;;
30850;SDS011;17567;48.382;9.102;2023-05-07T19:37:15;2.40;;;2.20;;
30850;SDS011;17567;48.382;9.102;2023-05-07T19:42:16;2.27;;;2.07;;
30850;SDS011;17567;48.382;9.102;2023-05-07T19:47:17;2.93;;;2.63;;
30850;SDS011;17567;48.382;9.102;2023-05-07T19:52:18;2.83;;;2.00;;
30850;SDS011;17567;48.382;9.102;2023-05-07T19:57:20;2.30;;;2.13;;
30850;SDS011;17567;48.382;9.102;2023-05-07T20:02:21;2.20;;;2.00;;
30850;SDS011;17567;48.382;9.102;2023-05-07T20:07:25;3.70;;;2.50;;
30850;SDS011;17567;48.382;9.102;2023-05-07T20:12:26;2.73;;;2.53;;
30850;SDS011;17567;48.382;9.102;2023-05-07T20:17:27;5.30;;;3.37;;
30850;SDS011;17567;48.382;9.102;2023-05-07T20:22:29;5.00;;;2.67;;
30850;SDS011;17567;48.382;9.102;2023-05-07T20:27:30;2.60;;;2.20;;
30850;SDS011;17567;48.382;9.102;2023-05-07T20:32:33;3.10;;;2.20;;
30850;SDS011;17567;48.382;9.102;2023-05-07T20:37:34;1.70;;;1.60;;
30850;SDS011;17567;48.382;9.102;2023-05-07T20:42:35;3.20;;;1.90;;
30850;SDS011;17567;48.382;9.102;2023-05-07T20:47:35;2.00;;;1.80;;
30850;SDS011;17567;48.382;9.102;2023-05-07T20:52:36;2.80;;;2.00;;
30850;SDS011;17567;48.382;9.102;2023-05-07T20:57:37;3.10;;;1.90;;
30850;SDS011;17567;48.382;9.102;2023-05-07T21:02:38;3.47;;;1.93;;
30850;SDS011;17567;48.382;9.102;2023-05-07T21:07:38;2.00;;;1.80;;
30850;SDS011;17567;48.382;9.102;2023-05-07T21:12:39;2.60;;;1.97;;
30850;SDS011;17567;48.382;9.102;2023-05-07T21:17:40;2.07;;;1.90;;
30850;SDS011;17567;48.382;9.102;2023-05-07T21:22:41;3.73;;;1.90;;
30850;SDS011;17567;48.382;9.102;2023-05-07T21:27:41;2.27;;;2.10;;
30850;SDS011;17567;48.382;9.102;2023-05-07T21:32:42;2.20;;;2.00;;
30850;SDS011;17567;48.382;9.102;2023-05-07T21:37:43;3.93;;;2.10;;
30850;SDS011;17567;48.382;9.102;2023-05-07T21:42:44;4.20;;;1.80;;
30850;SDS011;17567;48.382;9.102;2023-05-07T21:47:44;3.93;;;1.90;;
30850;SDS011;17567;48.382;9.102;2023-05-07T21:52:45;2.17;;;2.00;;
30850;SDS011;17567;48.382;9.102;2023-05-07T21:57:46;2.17;;;1.97;;
30850;SDS011;17567;48.382;9.102;2023-05-07T22:02:47;3.10;;;1.97;;
30850;SDS011;17567;48.382;9.102;2023-05-07T22:07:47;2.27;;;2.03;;
30850;SDS011;17567;48.382;9.102;2023-05-07T22:12:48;2.10;;;2.00;;
30850;SDS011;17567;48.382;9.102;2023-05-07T22:17:49;2.67;;;2.40;;
30850;SDS011;17567;48.382;9.102;2023-05-07T22:22:50;2.70;;;2.50;;
30850;SDS011;17567;48.382;9.102;2023-05-07T22:27:52;4.20;;;2.70;;
30850;SDS011;17567;48.382;9.102;2023-05-07T22:32:53;3.50;;;2.30;;
30850;SDS011;17567;48.382;9.102;2023-05-07T22:37:53;2.40;;;2.20;;
30850;SDS011;17567;48.382;9.102;2023-05-07T22:42:54;1.90;;;1.80;;
30850;SDS011;17567;48.382;9.102;2023-05-07T22:47:55;4.50;;;2.10;;
30850;SDS011;17567;48.382;9.102;2023-05-07T22:52:56;5.13;;;2.70;;
30850;SDS011;17567;48.382;9.102;2023-05-07T22:57:56;2.00;;;1.90;;
30850;SDS011;17567;48.382;9.102;2023-05-07T23:02:57;2.50;;;2.10;;
30850;SDS011;17567;48.382;9.102;2023-05-07T23:07:58;5.73;;;2.60;;
30850;SDS011;17567;48.382;9.102;2023-05-07T23:12:59;4.87;;;2.60;;
30850;SDS011;17567;48.382;9.102;2023-05-07T23:18:00;4.83;;;2.20;;
30850;SDS011;17567;48.382;9.102;2023-05-07T23:23:01;6.43;;;2.37;;
30850;SDS011;17567;48.382;9.102;2023-05-07T23:28:02;2.97;;;2.67;;
30850;SDS011;17567;48.382;9.102;2023-05-07T23:33:03;4.93;;;2.73;;
30850;SDS011;17567;48.382;9.102;2023-05-07T23:38:04;5.10;;;3.27;;
30850;SDS011;17567;48.382;9.102;2023-05-07T23:43:05;3.43;;;2.30;;
30850;SDS011;17567;48.382;9.102;2023-05-07T23:48:05;2.37;;;2.17;;
30850;SDS011;17567;48.382;9.102;2023-05-07T23:53:06;6.37;;;2.60;;
30850;SDS011;17567;48.382;9.102;2023-05-07T23:58:07;10.43;;;2.90;;
